Time;durP1;ratioP1;P1;durP2;ratioP2;P2;SDS_P1;SDS_P2;PMS_P1;PMS_P2;Temp;Humidity;BMP_temperature;BMP_pressure;BME280_temperature;BME280_humidity;BME280_pressure;Samples;Min_cycle;Max_cycle;Signal;HPM_P1;HPM_P2
2022/01/14 00:01:51;;;;;;;69.27;31.13;;;;;;;;;;4402331;32;20338;-49
2022/01/14 00:04:16;;;;;;;47.90;24.70;;;;;;;;;;4402736;32;20222;-48
2022/01/14 00:06:42;;;;;;;52.30;24.23;;;;;;;;;;4385898;32;20303;-48
2022/01/14 00:09:11;;;;;;;45.07;25.80;;;;;;;;;;4402371;32;20688;-49
2022/01/14 00:11:49;;;;;;;53.80;25.27;;;;;;;;;;4402018;32;20201;-49
2022/01/14 00:16:43;;;;;;;65.57;33.47;;;;;;;;;;4401607;32;20209;-51
2022/01/14 00:19:08;;;;;;;77.90;35.90;;;;;;;;;;4402025;32;20253;-49
2022/01/14 00:21:36;;;;;;;73.83;35.43;;;;;;;;;;4401576;32;20249;-49
2022/01/14 00:32:41;;;;;;;81.23;39.23;;;;;;;;;;4401727;32;20267;-49
2022/01/14 00:35:07;;;;;;;88.20;41.00;;;;;;;;;;4390560;32;20246;-49
2022/01/14 00:37:33;;;;;;;85.40;41.60;;;;;;;;;;4397842;32;20240;-50
2022/01/14 00:39:58;;;;;;;77.50;39.23;;;;;;;;;;4402333;32;20276;-50
2022/01/14 00:42:24;;;;;;;79.10;37.20;;;;;;;;;;4402492;32;20359;-49
2022/01/14 00:44:49;;;;;;;87.70;40.43;;;;;;;;;;4402616;32;20337;-49
2022/01/14 00:47:15;;;;;;;83.37;37.30;;;;;;;;;;4402053;32;20345;-50
2022/01/14 00:49:41;;;;;;;71.67;37.27;;;;;;;;;;4402041;32;20279;-49
2022/01/14 00:52:06;;;;;;;100.87;47.30;;;;;;;;;;4379505;32;20327;-49
2022/01/14 00:54:32;;;;;;;105.20;51.83;;;;;;;;;;4386854;32;20678;-48
2022/01/14 00:57:13;;;;;;;134.17;58.80;;;;;;;;;;4393677;32;20307;-48
2022/01/14 00:59:38;;;;;;;116.40;56.50;;;;;;;;;;4402389;32;20240;-50
2022/01/14 01:02:04;;;;;;;121.60;58.37;;;;;;;;;;4400480;32;20213;-50
2022/01/14 01:04:34;;;;;;;119.37;57.33;;;;;;;;;;4401999;32;20294;-50
2022/01/14 01:07:02;;;;;;;98.30;49.17;;;;;;;;;;4401607;32;20217;-48
2022/01/14 01:09:29;;;;;;;88.80;42.73;;;;;;;;;;4402399;32;20364;-49
2022/01/14 01:12:15;;;;;;;90.20;40.53;;;;;;;;;;4401504;32;20210;-49
2022/01/14 01:14:57;;;;;;;72.73;37.07;;;;;;;;;;4413190;32;20458;-49
2022/01/14 01:17:22;;;;;;;78.97;35.47;;;;;;;;;;4406741;32;20236;-49
2022/01/14 01:19:48;;;;;;;75.13;39.60;;;;;;;;;;4401932;32;20381;-49
2022/01/14 01:22:13;;;;;;;86.43;40.97;;;;;;;;;;4392881;32;20297;-49
2022/01/14 01:24:39;;;;;;;78.87;39.23;;;;;;;;;;4386877;32;20787;-49
2022/01/14 01:27:08;;;;;;;89.63;43.43;;;;;;;;;;4394438;32;20353;-48
2022/01/14 01:32:04;;;;;;;91.53;41.67;;;;;;;;;;4401153;32;20267;-48
2022/01/14 01:34:29;;;;;;;91.83;45.00;;;;;;;;;;4401631;32;20229;-49
2022/01/14 01:36:57;;;;;;;85.53;42.27;;;;;;;;;;4401454;32;20217;-48
2022/01/14 01:39:25;;;;;;;89.20;38.33;;;;;;;;;;4401865;32;20229;-47
2022/01/14 01:41:54;;;;;;;79.17;36.70;;;;;;;;;;4400047;32;20222;-48
2022/01/14 01:44:21;;;;;;;72.30;32.50;;;;;;;;;;4402311;32;20310;-48
2022/01/14 01:46:48;;;;;;;79.70;32.93;;;;;;;;;;4402135;32;20213;-49
2022/01/14 01:49:16;;;;;;;66.47;31.67;;;;;;;;;;4402336;32;20633;-50
2022/01/14 01:51:45;;;;;;;77.33;34.70;;;;;;;;;;4401360;32;20561;-49
2022/01/14 01:54:11;;;;;;;69.70;35.23;;;;;;;;;;4401781;32;20661;-48
2022/01/14 01:56:36;;;;;;;68.77;32.13;;;;;;;;;;4401467;32;20300;-49
2022/01/14 01:59:03;;;;;;;84.97;36.27;;;;;;;;;;4401674;32;20618;-48
2022/01/14 02:01:28;;;;;;;84.80;37.93;;;;;;;;;;4401469;32;20608;-49
2022/01/14 02:03:54;;;;;;;79.90;36.27;;;;;;;;;;4402817;32;20229;-49
2022/01/14 02:06:22;;;;;;;66.63;33.30;;;;;;;;;;4404568;32;20659;-50
2022/01/14 02:08:48;;;;;;;89.23;39.00;;;;;;;;;;4404953;32;20616;-49
2022/01/14 02:11:14;;;;;;;65.10;30.87;;;;;;;;;;4404701;32;20272;-48
2022/01/14 02:13:40;;;;;;;53.30;27.23;;;;;;;;;;4403702;32;20252;-49
2022/01/14 02:18:41;;;;;;;65.37;28.60;;;;;;;;;;4404373;32;20270;-48
2022/01/14 02:24:08;;;;;;;43.40;19.97;;;;;;;;;;4404545;32;20240;-49
2022/01/14 02:26:44;;;;;;;47.63;22.10;;;;;;;;;;4405134;32;20280;-48
2022/01/14 02:29:11;;;;;;;40.67;20.80;;;;;;;;;;4405443;32;20213;-48
2022/01/14 02:31:36;;;;;;;50.47;22.67;;;;;;;;;;4404772;32;20289;-47
2022/01/14 02:34:02;;;;;;;44.97;23.47;;;;;;;;;;4404962;32;20218;-47
2022/01/14 02:36:28;;;;;;;45.70;22.43;;;;;;;;;;4404614;32;20658;-48
2022/01/14 02:38:54;;;;;;;45.93;23.53;;;;;;;;;;4391455;32;20338;-49
2022/01/14 02:41:19;;;;;;;48.77;25.93;;;;;;;;;;4404932;32;20682;-48
2022/01/14 02:43:45;;;;;;;55.77;22.60;;;;;;;;;;4404305;32;20336;-48
2022/01/14 02:46:13;;;;;;;52.37;24.97;;;;;;;;;;4404630;32;20229;-48
2022/01/14 02:48:39;;;;;;;41.70;21.77;;;;;;;;;;4404664;32;20237;-48
2022/01/14 02:51:15;;;;;;;35.13;18.97;;;;;;;;;;4404816;32;20589;-48
2022/01/14 02:53:44;;;;;;;31.77;18.33;;;;;;;;;;4403694;32;20217;-47
2022/01/14 02:56:13;;;;;;;36.17;20.77;;;;;;;;;;4404249;32;20210;-49
2022/01/14 02:58:41;;;;;;;40.57;21.07;;;;;;;;;;4404670;32;20216;-47
2022/01/14 03:01:14;;;;;;;47.53;22.93;;;;;;;;;;4404380;32;20269;-48
2022/01/14 03:03:43;;;;;;;43.90;20.70;;;;;;;;;;4404672;32;20225;-47
2022/01/14 03:06:09;;;;;;;47.13;22.13;;;;;;;;;;4404118;32;20197;-48
2022/01/14 03:08:35;;;;;;;52.77;22.50;;;;;;;;;;4404209;32;20245;-48
2022/01/14 03:11:09;;;;;;;47.80;24.57;;;;;;;;;;4403696;32;20217;-49
2022/01/14 03:13:36;;;;;;;39.53;19.93;;;;;;;;;;4409973;32;20213;-47
2022/01/14 03:16:04;;;;;;;46.87;24.67;;;;;;;;;;4417102;32;20206;-49
2022/01/14 03:18:36;;;;;;;65.20;31.93;;;;;;;;;;4404713;32;20646;-48
2022/01/14 03:21:16;;;;;;;55.00;26.77;;;;;;;;;;4404575;32;20229;-49
2022/01/14 03:23:51;;;;;;;59.30;26.23;;;;;;;;;;4404402;32;20298;-48
2022/01/14 03:26:19;;;;;;;66.43;26.50;;;;;;;;;;4403627;32;20214;-50
2022/01/14 03:28:46;;;;;;;56.57;28.30;;;;;;;;;;4404436;32;20209;-48
2022/01/14 03:31:12;;;;;;;62.97;29.30;;;;;;;;;;4404086;32;20823;-48
2022/01/14 03:33:37;;;;;;;75.33;35.13;;;;;;;;;;4403979;32;20230;-48
2022/01/14 03:36:04;;;;;;;75.13;37.77;;;;;;;;;;4402152;32;20306;-47
2022/01/14 03:38:30;;;;;;;79.87;39.17;;;;;;;;;;4388869;32;20271;-49
2022/01/14 03:40:55;;;;;;;76.33;38.30;;;;;;;;;;4389134;32;20259;-47
2022/01/14 03:43:21;;;;;;;70.83;35.53;;;;;;;;;;4403962;32;20310;-48
2022/01/14 03:45:49;;;;;;;73.70;33.80;;;;;;;;;;4403710;32;20264;-48
2022/01/14 03:48:15;;;;;;;79.57;33.40;;;;;;;;;;4403603;32;20229;-48
2022/01/14 03:50:41;;;;;;;67.70;31.17;;;;;;;;;;4403226;32;20225;-49
2022/01/14 03:53:07;;;;;;;67.67;32.53;;;;;;;;;;4403319;32;20225;-48
2022/01/14 03:55:32;;;;;;;73.47;31.60;;;;;;;;;;4402849;32;20260;-49
2022/01/14 03:57:58;;;;;;;66.20;32.00;;;;;;;;;;4402494;32;20217;-49
2022/01/14 04:00:24;;;;;;;54.70;30.83;;;;;;;;;;4402935;32;20315;-49
2022/01/14 04:02:49;;;;;;;64.00;32.43;;;;;;;;;;4402785;32;20241;-48
2022/01/14 04:05:15;;;;;;;55.70;29.87;;;;;;;;;;4402934;32;20267;-48
2022/01/14 04:07:41;;;;;;;57.03;28.73;;;;;;;;;;4388556;32;20316;-49
2022/01/14 04:10:10;;;;;;;58.67;29.20;;;;;;;;;;4402873;32;20197;-48
2022/01/14 04:12:57;;;;;;;64.47;30.23;;;;;;;;;;4402196;32;20233;-48
2022/01/14 04:15:38;;;;;;;61.43;29.67;;;;;;;;;;4387952;32;20297;-47
2022/01/14 04:18:09;;;;;;;55.47;28.27;;;;;;;;;;4400596;32;20345;-49
2022/01/14 04:20:37;;;;;;;58.77;29.03;;;;;;;;;;4402447;32;20228;-48
2022/01/14 04:23:06;;;;;;;63.53;28.50;;;;;;;;;;4402348;32;20240;-49
2022/01/14 04:25:34;;;;;;;68.20;31.50;;;;;;;;;;4402237;32;20210;-47
2022/01/14 04:28:00;;;;;;;65.87;32.17;;;;;;;;;;4401631;32;20293;-48
2022/01/14 04:30:25;;;;;;;68.23;31.37;;;;;;;;;;4402364;32;20603;-48
2022/01/14 04:32:51;;;;;;;69.17;31.43;;;;;;;;;;4398226;32;20396;-48
2022/01/14 04:35:17;;;;;;;60.50;27.27;;;;;;;;;;4402488;32;20748;-49
2022/01/14 04:37:43;;;;;;;77.13;35.83;;;;;;;;;;4401660;32;20294;-48
2022/01/14 04:40:10;;;;;;;72.33;30.97;;;;;;;;;;4402527;32;20325;-49
2022/01/14 04:42:37;;;;;;;64.83;32.40;;;;;;;;;;4401828;32;20267;-50
2022/01/14 04:45:03;;;;;;;55.47;30.03;;;;;;;;;;4402344;32;20210;-48
2022/01/14 04:47:47;;;;;;;86.83;37.67;;;;;;;;;;4401181;32;20270;-49
2022/01/14 04:50:15;;;;;;;92.77;36.63;;;;;;;;;;4388175;32;20271;-49
2022/01/14 04:52:43;;;;;;;65.23;31.77;;;;;;;;;;4402232;32;20259;-49
2022/01/14 04:55:10;;;;;;;61.30;28.77;;;;;;;;;;4402144;32;20193;-49
2022/01/14 04:57:36;;;;;;;49.43;25.63;;;;;;;;;;4401765;32;20225;-49
2022/01/14 05:00:14;;;;;;;41.67;22.70;;;;;;;;;;4402156;32;20246;-49
2022/01/14 05:02:40;;;;;;;53.43;25.23;;;;;;;;;;4401607;32;20317;-49
2022/01/14 05:05:07;;;;;;;43.13;21.43;;;;;;;;;;4401866;32;20302;-48
2022/01/14 05:07:33;;;;;;;52.60;23.47;;;;;;;;;;4401555;32;20217;-49
2022/01/14 05:12:27;;;;;;;45.90;24.07;;;;;;;;;;4401509;32;20218;-49
2022/01/14 05:14:53;;;;;;;49.43;27.03;;;;;;;;;;4416183;32;20288;-50
2022/01/14 05:17:18;;;;;;;50.47;27.23;;;;;;;;;;4407661;32;20303;-49
2022/01/14 05:19:44;;;;;;;57.47;29.13;;;;;;;;;;4400288;32;20389;-48
2022/01/14 05:22:09;;;;;;;73.17;29.63;;;;;;;;;;4401770;32;20272;-50
2022/01/14 05:24:35;;;;;;;58.07;30.53;;;;;;;;;;4401501;32;20289;-49
2022/01/14 05:27:00;;;;;;;53.63;30.03;;;;;;;;;;4401592;32;20294;-48
2022/01/14 05:29:26;;;;;;;76.93;32.67;;;;;;;;;;4401243;32;20332;-49
2022/01/14 05:32:01;;;;;;;62.97;33.77;;;;;;;;;;4401565;32;20281;-49
2022/01/14 05:34:26;;;;;;;101.57;36.87;;;;;;;;;;4401739;32;20263;-50
2022/01/14 05:36:52;;;;;;;72.33;39.33;;;;;;;;;;4401176;32;20205;-49
2022/01/14 05:39:20;;;;;;;67.67;36.93;;;;;;;;;;4399727;32;20230;-49
2022/01/14 05:41:46;;;;;;;85.50;43.40;;;;;;;;;;4403357;32;20227;-49
2022/01/14 05:44:11;;;;;;;79.20;42.77;;;;;;;;;;4404037;32;20225;-49
2022/01/14 05:46:37;;;;;;;80.27;41.90;;;;;;;;;;4404614;32;20683;-48
2022/01/14 05:49:02;;;;;;;87.63;42.73;;;;;;;;;;4403636;32;20269;-49
2022/01/14 05:51:28;;;;;;;89.40;44.07;;;;;;;;;;4404103;32;20213;-48
2022/01/14 05:53:53;;;;;;;92.57;49.27;;;;;;;;;;4404633;32;20654;-49
2022/01/14 05:56:19;;;;;;;103.73;50.97;;;;;;;;;;4402996;32;20326;-48
2022/01/14 05:58:44;;;;;;;94.63;47.03;;;;;;;;;;4390358;32;20280;-48
2022/01/14 06:01:10;;;;;;;94.53;45.23;;;;;;;;;;4403787;32;20326;-49
2022/01/14 06:03:35;;;;;;;112.83;58.67;;;;;;;;;;4390899;32;20317;-48
2022/01/14 06:06:01;;;;;;;117.17;59.03;;;;;;;;;;4404141;32;20209;-49
2022/01/14 06:08:26;;;;;;;115.37;55.73;;;;;;;;;;4405197;32;20243;-49
2022/01/14 06:10:52;;;;;;;107.93;51.63;;;;;;;;;;4402809;32;20327;-49
2022/01/14 06:13:17;;;;;;;93.23;43.43;;;;;;;;;;4403046;32;20630;-49
2022/01/14 06:15:43;;;;;;;57.27;28.87;;;;;;;;;;4402483;32;20672;-49
2022/01/14 06:18:08;;;;;;;98.80;49.87;;;;;;;;;;4394152;32;20287;-48
2022/01/14 06:20:34;;;;;;;94.57;49.03;;;;;;;;;;4397642;32;20285;-48
2022/01/14 06:22:59;;;;;;;94.77;50.03;;;;;;;;;;4402966;32;20275;-49
2022/01/14 06:25:25;;;;;;;98.20;48.73;;;;;;;;;;4403592;32;20241;-48
2022/01/14 06:27:50;;;;;;;84.83;42.83;;;;;;;;;;4403115;32;20233;-48
2022/01/14 06:30:16;;;;;;;89.53;43.07;;;;;;;;;;4403941;32;20280;-58
2022/01/14 06:32:41;;;;;;;65.53;37.33;;;;;;;;;;4403494;32;20608;-48
2022/01/14 06:35:14;;;;;;;92.43;49.77;;;;;;;;;;4404091;32;20201;-50
2022/01/14 06:37:40;;;;;;;122.23;58.37;;;;;;;;;;4404071;32;20225;-48
2022/01/14 06:40:07;;;;;;;137.13;62.73;;;;;;;;;;4404619;32;20264;-49
2022/01/14 06:42:32;;;;;;;115.17;54.57;;;;;;;;;;4401722;32;20396;-50
2022/01/14 06:44:58;;;;;;;116.87;52.07;;;;;;;;;;4402072;32;20399;-49
2022/01/14 06:47:24;;;;;;;114.53;49.93;;;;;;;;;;4400947;32;20364;-50
2022/01/14 06:49:49;;;;;;;138.50;62.97;;;;;;;;;;4401042;32;20651;-48
2022/01/14 06:52:15;;;;;;;161.50;71.30;;;;;;;;;;4400927;32;20716;-48
2022/01/14 06:54:40;;;;;;;149.20;73.37;;;;;;;;;;4401444;32;20321;-48
2022/01/14 06:57:06;;;;;;;145.57;69.27;;;;;;;;;;4402776;32;20763;-50
2022/01/14 06:59:32;;;;;;;147.57;65.40;;;;;;;;;;4403716;32;20312;-48
2022/01/14 07:01:57;;;;;;;121.03;59.77;;;;;;;;;;4395624;32;20241;-48
2022/01/14 07:04:23;;;;;;;142.47;64.57;;;;;;;;;;4388273;32;20392;-49
2022/01/14 07:06:49;;;;;;;138.90;62.10;;;;;;;;;;4394056;32;20206;-49
2022/01/14 07:09:14;;;;;;;129.27;62.67;;;;;;;;;;4403736;32;20337;-50
2022/01/14 07:11:40;;;;;;;134.03;62.93;;;;;;;;;;4432890;27;20384;-89
2022/01/14 07:14:06;;;;;;;132.77;66.90;;;;;;;;;;4437576;32;20192;-86
2022/01/14 07:16:33;;;;;;;124.63;58.13;;;;;;;;;;4437800;32;20716;-88
2022/01/14 07:19:00;;;;;;;136.63;59.27;;;;;;;;;;4423849;32;20370;-85
2022/01/14 07:21:27;;;;;;;126.97;62.47;;;;;;;;;;4423767;32;20229;-84
2022/01/14 07:23:53;;;;;;;140.93;64.20;;;;;;;;;;4423257;32;20247;-85
2022/01/14 07:26:19;;;;;;;153.67;63.33;;;;;;;;;;4437020;32;20232;-84
2022/01/14 07:28:45;;;;;;;148.93;68.67;;;;;;;;;;4423995;32;20244;-85
2022/01/14 07:31:11;;;;;;;162.03;72.53;;;;;;;;;;4437397;32;20205;-83
2022/01/14 07:33:38;;;;;;;136.27;66.60;;;;;;;;;;4423320;32;20399;-83
2022/01/14 07:36:04;;;;;;;127.87;64.80;;;;;;;;;;4437456;32;20573;-83
2022/01/14 07:38:30;;;;;;;114.63;55.17;;;;;;;;;;4439282;32;20386;-84
2022/01/14 07:40:56;;;;;;;98.23;50.60;;;;;;;;;;4440572;32;20221;-84
2022/01/14 07:43:22;;;;;;;116.30;49.93;;;;;;;;;;4424927;32;20224;-83
2022/01/14 07:45:48;;;;;;;83.33;43.60;;;;;;;;;;4424426;32;20442;-83
2022/01/14 07:48:14;;;;;;;82.23;40.03;;;;;;;;;;4423909;32;20679;-83
2022/01/14 07:50:40;;;;;;;78.53;42.60;;;;;;;;;;4424041;32;20316;-82
2022/01/14 07:53:05;;;;;;;94.67;39.93;;;;;;;;;;4423339;32;20299;-83
2022/01/14 07:55:35;;;;;;;80.83;42.53;;;;;;;;;;4437025;32;20205;-85
2022/01/14 07:58:02;;;;;;;88.87;43.97;;;;;;;;;;4424244;32;20229;-82
2022/01/14 08:00:31;;;;;;;89.53;40.90;;;;;;;;;;4440740;32;20221;-82
2022/01/14 08:02:59;;;;;;;95.13;46.03;;;;;;;;;;4443154;32;20220;-81
2022/01/14 08:05:24;;;;;;;81.80;43.77;;;;;;;;;;4442390;32;20362;-84
2022/01/14 08:07:52;;;;;;;84.80;46.00;;;;;;;;;;4444321;32;20296;-84
2022/01/14 08:10:20;;;;;;;164.33;72.47;;;;;;;;;;4444958;32;20200;-84
2022/01/14 08:12:47;;;;;;;101.30;46.30;;;;;;;;;;4445299;32;20241;-83
2022/01/14 08:15:13;;;;;;;97.87;53.87;;;;;;;;;;4445048;32;20233;-82
2022/01/14 08:17:39;;;;;;;101.83;51.43;;;;;;;;;;4444540;32;20295;-83
2022/01/14 08:20:06;;;;;;;94.13;53.67;;;;;;;;;;4430163;32;20303;-83
2022/01/14 08:22:32;;;;;;;88.33;47.77;;;;;;;;;;4444558;32;20220;-83
2022/01/14 08:24:59;;;;;;;99.77;50.77;;;;;;;;;;4442891;32;20264;-83
2022/01/14 08:27:31;;;;;;;109.67;55.47;;;;;;;;;;4438389;32;20240;-82
2022/01/14 08:29:57;;;;;;;100.83;47.20;;;;;;;;;;4439931;32;20229;-84
2022/01/14 08:32:23;;;;;;;86.93;47.17;;;;;;;;;;4425401;32;20569;-84
2022/01/14 08:34:50;;;;;;;109.67;50.43;;;;;;;;;;4438864;32;20225;-83
2022/01/14 08:37:15;;;;;;;105.03;50.97;;;;;;;;;;4439036;32;20284;-84
2022/01/14 08:39:41;;;;;;;110.40;52.57;;;;;;;;;;4424190;32;20241;-85
2022/01/14 08:42:09;;;;;;;120.53;53.80;;;;;;;;;;4437653;32;20228;-84
2022/01/14 08:44:38;;;;;;;115.93;58.93;;;;;;;;;;4439588;32;20201;-82
2022/01/14 08:47:08;;;;;;;107.23;54.53;;;;;;;;;;4439378;32;20554;-83
2022/01/14 08:49:33;;;;;;;132.73;64.80;;;;;;;;;;4437894;32;20270;-85
2022/01/14 08:52:02;;;;;;;104.77;55.53;;;;;;;;;;4423636;32;20236;-86
2022/01/14 08:54:28;;;;;;;130.63;62.33;;;;;;;;;;4411469;32;20283;-83
2022/01/14 08:56:54;;;;;;;116.27;52.33;;;;;;;;;;4437195;32;20260;-89
2022/01/14 08:59:24;;;;;;;136.87;75.27;;;;;;;;;;4438977;32;20567;-85
2022/01/14 09:01:49;;;;;;;109.60;56.20;;;;;;;;;;4425635;32;20272;-83
2022/01/14 09:04:15;;;;;;;95.47;51.77;;;;;;;;;;4439120;32;20217;-83
2022/01/14 09:06:41;;;;;;;100.30;52.10;;;;;;;;;;4439245;32;20205;-82
2022/01/14 09:09:07;;;;;;;103.27;54.23;;;;;;;;;;4437329;32;20271;-83
2022/01/14 09:11:34;;;;;;;91.40;49.00;;;;;;;;;;4437882;32;20219;-83
2022/01/14 09:14:00;;;;;;;80.03;37.93;;;;;;;;;;4438039;32;20371;-84
2022/01/14 09:16:25;;;;;;;92.40;46.30;;;;;;;;;;4423341;32;20225;-82
2022/01/14 09:18:51;;;;;;;83.07;45.40;;;;;;;;;;4435779;32;20236;-81
2022/01/14 09:21:18;;;;;;;86.70;44.07;;;;;;;;;;4437274;32;20268;-89
2022/01/14 09:26:45;;;;;;;90.27;36.70;;;;;;;;;;4412391;32;20606;-82
2022/01/14 09:29:10;;;;;;;82.83;40.43;;;;;;;;;;4439237;32;20264;-82
2022/01/14 09:31:37;;;;;;;81.97;38.83;;;;;;;;;;4438743;32;20231;-88
2022/01/14 09:34:03;;;;;;;63.83;34.37;;;;;;;;;;4439031;32;20539;-90
2022/01/14 09:36:29;;;;;;;71.13;34.63;;;;;;;;;;4438608;32;20230;-84
2022/01/14 09:38:55;;;;;;;91.30;44.60;;;;;;;;;;4437935;32;20648;-83
2022/01/14 09:41:21;;;;;;;91.90;44.63;;;;;;;;;;4423833;32;20609;-82
2022/01/14 09:43:49;;;;;;;94.20;46.73;;;;;;;;;;4437058;32;20423;-84
2022/01/14 09:46:15;;;;;;;105.00;58.53;;;;;;;;;;4438223;32;20205;-84
2022/01/14 09:48:41;;;;;;;93.23;49.07;;;;;;;;;;4437334;32;20374;-84
2022/01/14 09:51:06;;;;;;;97.97;52.47;;;;;;;;;;4437517;32;20265;-84
2022/01/14 09:53:33;;;;;;;87.97;47.40;;;;;;;;;;4437154;32;20247;-83
2022/01/14 09:56:01;;;;;;;109.20;51.33;;;;;;;;;;4424279;32;20233;-85
2022/01/14 09:58:29;;;;;;;100.60;49.30;;;;;;;;;;4437778;32;20201;-85
2022/01/14 10:01:13;;;;;;;101.47;47.53;;;;;;;;;;4437230;32;20543;-86
2022/01/14 10:04:01;;;;;;;91.53;48.77;;;;;;;;;;4424946;32;20252;-84
2022/01/14 10:06:41;;;;;;;91.03;47.53;;;;;;;;;;4438267;32;20551;-84
2022/01/14 10:09:10;;;;;;;82.80;39.17;;;;;;;;;;4438266;32;20339;-85
2022/01/14 10:11:38;;;;;;;77.73;35.00;;;;;;;;;;4424082;32;20239;-84
2022/01/14 10:14:15;;;;;;;92.73;44.93;;;;;;;;;;4438346;32;20267;-83
2022/01/14 10:16:43;;;;;;;52.07;29.23;;;;;;;;;;4438286;32;20275;-83
2022/01/14 10:19:19;;;;;;;47.37;25.23;;;;;;;;;;4424373;32;20236;-82
2022/01/14 10:21:45;;;;;;;61.60;30.37;;;;;;;;;;4443174;32;20226;-84
2022/01/14 10:24:11;;;;;;;65.87;33.23;;;;;;;;;;4441028;32;20530;-82
2022/01/14 10:26:51;;;;;;;63.80;34.17;;;;;;;;;;4443373;32;20212;-82
2022/01/14 10:29:38;;;;;;;78.40;34.30;;;;;;;;;;4442758;32;20224;-83
2022/01/14 10:32:05;;;;;;;70.43;38.27;;;;;;;;;;4427716;32;20225;-83
2022/01/14 10:34:31;;;;;;;65.63;35.57;;;;;;;;;;4441305;32;20267;-81
2022/01/14 10:37:16;;;;;;;64.53;36.73;;;;;;;;;;4427449;32;20225;-82
2022/01/14 10:39:49;;;;;;;61.23;33.07;;;;;;;;;;4443950;32;20268;-82
2022/01/14 10:42:29;;;;;;;69.20;36.23;;;;;;;;;;4429398;32;20250;-85
2022/01/14 10:45:09;;;;;;;60.13;34.73;;;;;;;;;;4433451;32;20245;-84
2022/01/14 10:47:35;;;;;;;74.87;37.03;;;;;;;;;;4450125;32;20193;-85
2022/01/14 10:50:00;;;;;;;65.90;39.90;;;;;;;;;;4450387;32;20284;-84
2022/01/14 10:52:27;;;;;;;76.13;40.37;;;;;;;;;;4450917;32;20257;-84
2022/01/14 10:54:58;;;;;;;86.20;42.47;;;;;;;;;;4448769;32;20225;-83
2022/01/14 10:57:27;;;;;;;103.40;46.73;;;;;;;;;;4451000;32;20236;-85
2022/01/14 11:00:19;;;;;;;103.93;56.80;;;;;;;;;;4460756;26;20236;-85
2022/01/14 11:02:48;;;;;;;99.07;49.97;;;;;;;;;;4405305;32;20212;-85
2022/01/14 11:05:15;;;;;;;95.97;50.70;;;;;;;;;;4417229;32;20636;-85
2022/01/14 11:07:42;;;;;;;99.43;53.90;;;;;;;;;;4416416;32;20221;-85
2022/01/14 11:10:20;;;;;;;88.47;48.93;;;;;;;;;;4411538;32;20259;-83
2022/01/14 11:12:47;;;;;;;77.20;43.07;;;;;;;;;;4424224;32;20193;-83
2022/01/14 11:15:13;;;;;;;136.87;73.03;;;;;;;;;;4409525;32;20233;-84
2022/01/14 11:17:40;;;;;;;122.13;66.83;;;;;;;;;;4425191;32;20197;-86
2022/01/14 11:20:12;;;;;;;121.37;62.70;;;;;;;;;;4424650;32;20226;-85
2022/01/14 11:25:22;;;;;;;122.70;65.73;;;;;;;;;;4424788;32;20282;-87
2022/01/14 11:27:52;;;;;;;115.10;58.97;;;;;;;;;;4424141;32;20200;-87
2022/01/14 11:30:18;;;;;;;127.27;65.07;;;;;;;;;;4424775;32;20232;-87
2022/01/14 11:32:57;;;;;;;497.10;283.33;;;;;;;;;;4424564;32;20224;-87
2022/01/14 11:35:25;;;;;;;178.43;95.70;;;;;;;;;;4410707;32;20290;-87
2022/01/14 11:37:51;;;;;;;152.57;73.10;;;;;;;;;;4423285;32;20193;-83
2022/01/14 11:40:17;;;;;;;190.20;92.77;;;;;;;;;;4423850;32;20237;-83
2022/01/14 11:42:48;;;;;;;135.23;70.87;;;;;;;;;;4424285;32;20212;-84
2022/01/14 11:45:36;;;;;;;148.90;71.23;;;;;;;;;;4424081;32;20221;-83
2022/01/14 11:48:03;;;;;;;124.77;65.60;;;;;;;;;;4422388;32;20206;-83
2022/01/14 11:50:32;;;;;;;144.57;76.80;;;;;;;;;;4409466;32;20243;-83
2022/01/14 11:53:01;;;;;;;161.83;78.87;;;;;;;;;;4423505;32;20222;-82
2022/01/14 11:55:36;;;;;;;142.77;71.77;;;;;;;;;;4423680;32;20252;-83
2022/01/14 12:00:30;;;;;;;129.87;64.87;;;;;;;;;;4415439;32;20286;-54
2022/01/14 12:03:13;;;;;;;110.97;61.73;;;;;;;;;;4422093;27;20761;-53
2022/01/14 12:05:50;;;;;;;107.77;57.50;;;;;;;;;;4417310;32;20302;-53
2022/01/14 12:08:19;;;;;;;92.77;50.30;;;;;;;;;;4417530;32;20213;-53
2022/01/14 12:10:48;;;;;;;101.37;52.30;;;;;;;;;;4409550;32;20331;-54
2022/01/14 12:16:37;;;;;;;100.57;55.73;;;;;;;;;;4400061;32;20221;-54
2022/01/14 12:19:03;;;;;;;105.43;52.03;;;;;;;;;;4398631;32;20505;-53
2022/01/14 12:21:38;;;;;;;110.03;60.33;;;;;;;;;;4402270;32;20316;-54
2022/01/14 12:24:18;;;;;;;75.23;42.67;;;;;;;;;;4396557;32;20311;-55
2022/01/14 12:27:03;;;;;;;80.83;42.80;;;;;;;;;;4385104;32;20237;-54
2022/01/14 12:29:49;;;;;;;90.67;45.33;;;;;;;;;;4389990;32;20689;-54
2022/01/14 12:32:20;;;;;;;76.83;41.03;;;;;;;;;;4398790;32;20249;-53
2022/01/14 12:34:48;;;;;;;46.23;25.83;;;;;;;;;;4394502;32;20248;-54
2022/01/14 12:37:30;;;;;;;52.70;30.43;;;;;;;;;;4415435;32;20374;-55
2022/01/14 12:40:01;;;;;;;53.57;28.27;;;;;;;;;;4403933;32;20274;-54
2022/01/14 12:42:26;;;;;;;52.97;28.17;;;;;;;;;;4403181;32;20237;-54
2022/01/14 12:44:53;;;;;;;70.83;36.73;;;;;;;;;;4397091;32;20754;-54
2022/01/14 12:47:27;;;;;;;70.53;36.07;;;;;;;;;;4416050;32;20324;-54
2022/01/14 12:49:53;;;;;;;65.27;36.67;;;;;;;;;;4417202;32;20217;-54
2022/01/14 12:52:38;;;;;;;62.63;35.20;;;;;;;;;;4417291;32;20311;-53
2022/01/14 12:55:10;;;;;;;84.90;41.33;;;;;;;;;;4415422;32;20228;-54
2022/01/14 12:57:35;;;;;;;56.60;33.50;;;;;;;;;;4386929;32;20238;-54
2022/01/14 13:00:04;;;;;;;72.23;37.13;;;;;;;;;;4399019;32;20303;-54
2022/01/14 13:02:30;;;;;;;64.50;34.03;;;;;;;;;;4409442;32;20264;-53
2022/01/14 13:05:08;;;;;;;55.90;31.10;;;;;;;;;;4391295;32;20371;-54
2022/01/14 13:07:35;;;;;;;64.90;33.20;;;;;;;;;;4388226;32;20482;-54
2022/01/14 13:10:03;;;;;;;64.53;33.60;;;;;;;;;;4394412;32;20704;-53
2022/01/14 13:12:33;;;;;;;57.60;33.57;;;;;;;;;;4395471;32;20355;-54
2022/01/14 13:15:01;;;;;;;62.17;31.13;;;;;;;;;;4396233;32;20404;-53
2022/01/14 13:17:29;;;;;;;59.10;29.00;;;;;;;;;;4395060;32;20232;-53
2022/01/14 13:19:58;;;;;;;42.03;24.97;;;;;;;;;;4405256;32;20737;-54
2022/01/14 13:22:25;;;;;;;51.13;28.80;;;;;;;;;;4413550;32;20597;-54
2022/01/14 13:24:56;;;;;;;54.97;26.90;;;;;;;;;;4400296;32;20695;-54
2022/01/14 13:27:28;;;;;;;41.23;20.53;;;;;;;;;;4399653;32;21105;-54
2022/01/14 13:29:58;;;;;;;42.37;20.73;;;;;;;;;;4397011;32;20248;-52
2022/01/14 13:32:32;;;;;;;54.50;24.77;;;;;;;;;;4401870;32;20336;-53
2022/01/14 13:35:09;;;;;;;59.23;27.20;;;;;;;;;;4395938;32;20301;-53
2022/01/14 13:37:36;;;;;;;38.50;19.80;;;;;;;;;;4396624;32;20300;-54
2022/01/14 13:40:11;;;;;;;46.37;22.87;;;;;;;;;;4400169;32;20839;-53
2022/01/14 13:42:40;;;;;;;39.50;19.23;;;;;;;;;;4395574;32;20714;-53
2022/01/14 13:45:16;;;;;;;38.23;21.00;;;;;;;;;;4406412;32;20229;-52
2022/01/14 13:47:42;;;;;;;41.00;22.30;;;;;;;;;;4416877;32;20235;-54
2022/01/14 13:50:13;;;;;;;45.07;23.77;;;;;;;;;;4415428;32;20816;-53
2022/01/14 13:52:43;;;;;;;64.53;26.60;;;;;;;;;;4417116;32;20300;-53
2022/01/14 13:55:09;;;;;;;77.33;27.00;;;;;;;;;;4415043;32;20735;-54
2022/01/14 13:57:34;;;;;;;52.57;26.00;;;;;;;;;;4385992;32;20288;-54
2022/01/14 14:00:13;;;;;;;48.73;24.93;;;;;;;;;;4400497;32;20287;-53
2022/01/14 14:02:50;;;;;;;50.37;25.60;;;;;;;;;;4410202;32;20452;-53
2022/01/14 14:05:39;;;;;;;42.17;22.27;;;;;;;;;;4404274;32;20239;-53
2022/01/14 14:08:11;;;;;;;51.80;28.93;;;;;;;;;;4404578;32;20248;-53
2022/01/14 14:16:32;;;;;;;53.50;25.97;;;;;;;;;;4371256;32;20272;-54
2022/01/14 14:18:59;;;;;;;31.00;17.40;;;;;;;;;;4392272;32;20259;-55
2022/01/14 14:21:30;;;;;;;47.47;25.60;;;;;;;;;;4419315;32;20233;-54
2022/01/14 14:23:56;;;;;;;40.33;22.13;;;;;;;;;;4413983;32;20658;-55
2022/01/14 14:26:29;;;;;;;51.70;27.37;;;;;;;;;;4387526;32;20296;-56
2022/01/14 14:29:14;;;;;;;52.80;26.30;;;;;;;;;;4399473;32;20247;-55
2022/01/14 14:31:40;;;;;;;42.83;24.53;;;;;;;;;;4369476;32;20279;-54
2022/01/14 14:34:05;;;;;;;45.97;23.27;;;;;;;;;;4404926;32;20304;-53
2022/01/14 14:36:33;;;;;;;38.70;19.87;;;;;;;;;;4388873;32;20693;-54
2022/01/14 14:38:59;;;;;;;39.57;22.83;;;;;;;;;;4387472;32;20304;-54
2022/01/14 14:41:24;;;;;;;594.63;270.50;;;;;;;;;;4389818;32;20318;-55
2022/01/14 15:04:58;;;;;;;116.70;60.97;;;;;;;;;;4400620;32;20280;-54
2022/01/14 15:07:24;;;;;;;142.60;72.70;;;;;;;;;;4390169;32;20366;-54
2022/01/14 15:09:53;;;;;;;146.10;72.53;;;;;;;;;;4403603;32;20311;-54
2022/01/14 15:12:19;;;;;;;168.03;83.80;;;;;;;;;;4389801;32;20386;-54
2022/01/14 15:14:47;;;;;;;180.67;90.87;;;;;;;;;;4399971;32;20575;-54
2022/01/14 15:19:51;;;;;;;190.30;91.40;;;;;;;;;;4417146;32;20515;-55
2022/01/14 15:22:18;;;;;;;240.83;117.00;;;;;;;;;;4389877;32;20354;-54
2022/01/14 15:24:44;;;;;;;255.23;116.13;;;;;;;;;;4403310;32;20296;-54